Time;durP1;ratioP1;P1;durP2;ratioP2;P2;SDS_P1;SDS_P2;PMS_P1;PMS_P2;Temp;Humidity;BMP_temperature;BMP_pressure;BME280_temperature;BME280_humidity;BME280_pressure;Samples;Min_cycle;Max_cycle;Signal;HPM_P1;HPM_P2
2022/05/31 00:02:16;;;;;;;5.68;2.60;;;;;;;;;;5100081;28;20036;-68
2022/05/31 00:04:41;;;;;;;5.43;2.03;;;;;;;;;;5104515;28;20048;-68
2022/05/31 00:07:07;;;;;;;6.78;2.45;;;;;;;;;;5108826;28;20416;-68
2022/05/31 00:09:32;;;;;;;5.82;2.30;;;;;;;;;;5103170;28;20114;-68
2022/05/31 00:11:58;;;;;;;5.45;2.10;;;;;;;;;;5110854;28;20471;-68
2022/05/31 00:14:23;;;;;;;6.75;2.60;;;;;;;;;;5103792;28;20016;-68
2022/05/31 00:16:49;;;;;;;9.52;2.40;;;;;;;;;;5103491;28;20059;-68
2022/05/31 00:19:15;;;;;;;6.80;2.50;;;;;;;;;;5097994;28;20027;-68
2022/05/31 00:21:40;;;;;;;5.32;2.47;;;;;;;;;;5110567;28;20024;-68
2022/05/31 00:24:06;;;;;;;6.72;2.38;;;;;;;;;;5099785;28;20032;-68
2022/05/31 00:26:32;;;;;;;6.80;2.72;;;;;;;;;;5099038;28;20095;-68
2022/05/31 00:28:57;;;;;;;3.95;1.95;;;;;;;;;;5100619;28;20043;-68
2022/05/31 00:31:23;;;;;;;5.75;2.35;;;;;;;;;;5110792;28;20394;-68
2022/05/31 00:33:49;;;;;;;5.35;2.20;;;;;;;;;;5106509;28;20011;-67
2022/05/31 00:36:14;;;;;;;5.60;1.90;;;;;;;;;;5112882;28;20100;-68
2022/05/31 00:38:39;;;;;;;5.72;2.22;;;;;;;;;;5102695;28;20360;-68
2022/05/31 00:41:26;;;;;;;4.70;2.10;;;;;;;;;;5111191;28;20028;-68
2022/05/31 00:43:57;;;;;;;4.28;2.10;;;;;;;;;;5101936;28;20032;-68
2022/05/31 00:46:24;;;;;;;5.97;2.28;;;;;;;;;;5104305;28;20055;-68
2022/05/31 00:48:55;;;;;;;5.07;2.10;;;;;;;;;;5110153;28;20026;-67
2022/05/31 00:51:21;;;;;;;4.32;2.20;;;;;;;;;;5104286;28;20034;-68
2022/05/31 00:53:49;;;;;;;6.53;2.10;;;;;;;;;;5087467;28;21000;-69
2022/05/31 00:56:17;;;;;;;5.82;2.10;;;;;;;;;;5091791;28;20471;-68
2022/05/31 00:59:09;;;;;;;7.10;2.50;;;;;;;;;;5104836;28;20008;-68
2022/05/31 01:01:37;;;;;;;3.55;2.03;;;;;;;;;;5099201;28;20048;-68
2022/05/31 01:04:03;;;;;;;9.95;2.22;;;;;;;;;;5101400;28;20024;-68
2022/05/31 01:06:28;;;;;;;8.20;2.10;;;;;;;;;;5110392;28;20028;-68
2022/05/31 01:08:55;;;;;;;3.50;2.00;;;;;;;;;;5106252;28;20382;-68
2022/05/31 01:11:22;;;;;;;7.45;2.35;;;;;;;;;;5109875;28;20464;-68
2022/05/31 01:13:47;;;;;;;5.75;2.30;;;;;;;;;;5103844;28;20395;-68
2022/05/31 01:16:13;;;;;;;6.47;2.20;;;;;;;;;;5111136;28;20024;-68
2022/05/31 01:18:38;;;;;;;8.75;2.00;;;;;;;;;;5109272;28;20020;-68
2022/05/31 01:21:04;;;;;;;3.25;1.90;;;;;;;;;;5108432;28;20066;-68
2022/05/31 01:23:32;;;;;;;4.43;2.22;;;;;;;;;;5113663;28;20031;-68
2022/05/31 01:26:04;;;;;;;4.80;2.22;;;;;;;;;;5109480;28;20023;-68
2022/05/31 01:28:38;;;;;;;5.18;2.25;;;;;;;;;;5107284;28;20149;-68
2022/05/31 01:31:03;;;;;;;4.30;2.15;;;;;;;;;;5101760;28;20012;-68
2022/05/31 01:33:39;;;;;;;4.30;1.98;;;;;;;;;;5106255;28;20387;-68
2022/05/31 01:36:07;;;;;;;4.30;1.90;;;;;;;;;;5108403;28;20085;-68
2022/05/31 01:38:37;;;;;;;3.25;2.00;;;;;;;;;;5103114;28;20060;-68
2022/05/31 01:41:03;;;;;;;4.88;2.10;;;;;;;;;;5104198;28;20038;-68
2022/05/31 01:43:28;;;;;;;4.32;2.00;;;;;;;;;;5111462;28;20024;-68
2022/05/31 01:45:55;;;;;;;8.45;2.33;;;;;;;;;;5109139;28;20027;-68
2022/05/31 01:48:20;;;;;;;3.72;2.10;;;;;;;;;;5103244;28;20101;-68
2022/05/31 01:50:46;;;;;;;4.90;1.98;;;;;;;;;;5091719;28;20148;-68
2022/05/31 01:53:13;;;;;;;5.07;2.10;;;;;;;;;;5109150;28;20455;-68
2022/05/31 01:55:40;;;;;;;4.60;2.20;;;;;;;;;;5107420;28;20091;-68
2022/05/31 01:58:08;;;;;;;3.95;2.30;;;;;;;;;;5102643;28;20480;-67
2022/05/31 02:00:34;;;;;;;8.77;2.47;;;;;;;;;;5101849;28;20069;-68
2022/05/31 02:03:01;;;;;;;4.15;2.00;;;;;;;;;;5109522;28;20031;-68
2022/05/31 02:05:26;;;;;;;8.10;2.13;;;;;;;;;;5106076;28;20024;-68
2022/05/31 02:07:56;;;;;;;7.45;2.17;;;;;;;;;;5107170;28;20031;-68
2022/05/31 02:10:21;;;;;;;7.18;2.40;;;;;;;;;;5110242;28;20521;-68
2022/05/31 02:12:47;;;;;;;4.32;2.22;;;;;;;;;;5101053;28;20024;-68
2022/05/31 02:15:12;;;;;;;8.77;2.65;;;;;;;;;;5102620;28;20032;-68
2022/05/31 02:17:37;;;;;;;5.18;2.35;;;;;;;;;;5112408;28;20016;-68
2022/05/31 02:20:02;;;;;;;8.63;2.47;;;;;;;;;;5103018;28;20023;-68
2022/05/31 02:22:30;;;;;;;3.85;2.25;;;;;;;;;;5114410;28;20135;-68
2022/05/31 02:24:55;;;;;;;5.43;2.53;;;;;;;;;;5099132;28;20019;-68
2022/05/31 02:27:21;;;;;;;4.88;2.60;;;;;;;;;;5100431;28;20032;-68
2022/05/31 02:29:46;;;;;;;5.85;2.60;;;;;;;;;;5108133;28;20475;-68
2022/05/31 02:32:12;;;;;;;4.65;2.53;;;;;;;;;;5106652;28;20038;-68
2022/05/31 02:34:40;;;;;;;5.72;2.75;;;;;;;;;;5107981;28;20151;-67
2022/05/31 02:37:06;;;;;;;9.55;3.15;;;;;;;;;;5106197;28;20495;-68
2022/05/31 02:39:31;;;;;;;5.35;2.38;;;;;;;;;;5108795;28;20048;-68
2022/05/31 02:41:57;;;;;;;7.07;2.38;;;;;;;;;;5111896;28;20031;-68
2022/05/31 02:44:23;;;;;;;7.35;2.75;;;;;;;;;;5103185;28;20036;-68
2022/05/31 02:46:48;;;;;;;4.13;2.22;;;;;;;;;;5098899;28;20026;-68
2022/05/31 02:49:13;;;;;;;10.32;2.75;;;;;;;;;;5105609;28;20069;-68
2022/05/31 02:51:41;;;;;;;5.95;2.60;;;;;;;;;;5111363;28;20696;-68
2022/05/31 02:54:06;;;;;;;4.72;2.53;;;;;;;;;;5111058;28;20348;-68
2022/05/31 02:56:32;;;;;;;5.20;2.63;;;;;;;;;;5108778;28;20028;-68
2022/05/31 02:58:57;;;;;;;11.18;3.50;;;;;;;;;;5109116;28;20382;-68
2022/05/31 03:01:24;;;;;;;6.40;3.28;;;;;;;;;;5106936;28;20055;-68
2022/05/31 03:03:49;;;;;;;10.07;3.08;;;;;;;;;;5099331;28;20107;-68
2022/05/31 03:06:15;;;;;;;6.03;2.70;;;;;;;;;;5109704;28;20127;-68
2022/05/31 03:08:40;;;;;;;4.90;2.58;;;;;;;;;;5105504;28;20135;-68
2022/05/31 03:11:07;;;;;;;7.47;2.72;;;;;;;;;;5102656;28;20429;-68
2022/05/31 03:13:33;;;;;;;9.65;2.78;;;;;;;;;;5099694;28;20084;-67
2022/05/31 03:16:00;;;;;;;6.88;2.83;;;;;;;;;;5110491;28;20110;-68
2022/05/31 03:18:31;;;;;;;8.25;2.75;;;;;;;;;;5105788;28;20154;-68
2022/05/31 03:20:57;;;;;;;6.47;2.90;;;;;;;;;;5108667;28;20467;-68
2022/05/31 03:23:34;;;;;;;5.40;2.70;;;;;;;;;;5105262;28;20383;-68
2022/05/31 03:26:01;;;;;;;7.82;2.75;;;;;;;;;;5109753;28;20023;-67
2022/05/31 03:28:27;;;;;;;5.35;2.63;;;;;;;;;;5107079;28;20042;-68
2022/05/31 03:30:52;;;;;;;5.30;2.47;;;;;;;;;;5110066;28;20007;-68
2022/05/31 03:33:18;;;;;;;9.93;2.47;;;;;;;;;;5103168;28;20027;-68
2022/05/31 03:35:43;;;;;;;5.63;2.83;;;;;;;;;;5108884;28;20093;-68
2022/05/31 03:38:09;;;;;;;7.10;2.85;;;;;;;;;;5108869;28;20496;-68
2022/05/31 03:43:18;;;;;;;5.90;2.38;;;;;;;;;;5108561;28;20109;-68
2022/05/31 03:45:43;;;;;;;6.43;2.75;;;;;;;;;;5103149;28;20460;-68
2022/05/31 03:48:10;;;;;;;6.78;2.38;;;;;;;;;;5109338;28;20457;-68
2022/05/31 03:50:35;;;;;;;3.95;2.30;;;;;;;;;;5099134;28;20047;-68
2022/05/31 03:53:01;;;;;;;3.80;2.20;;;;;;;;;;5103111;28;20062;-68
2022/05/31 03:55:26;;;;;;;5.32;2.35;;;;;;;;;;5103590;28;20076;-68
2022/05/31 03:57:52;;;;;;;5.00;2.47;;;;;;;;;;5081199;28;20091;-68
2022/05/31 04:00:18;;;;;;;4.07;2.28;;;;;;;;;;5101393;28;20077;-68
2022/05/31 04:02:43;;;;;;;5.22;2.55;;;;;;;;;;5098417;28;20119;-68
2022/05/31 04:05:08;;;;;;;4.95;2.33;;;;;;;;;;5110836;28;20348;-68
2022/05/31 04:07:35;;;;;;;5.72;2.30;;;;;;;;;;5103702;28;20051;-68
2022/05/31 04:10:01;;;;;;;4.13;2.28;;;;;;;;;;5110749;28;20032;-68
2022/05/31 04:12:26;;;;;;;6.38;2.33;;;;;;;;;;5106993;28;20046;-68
2022/05/31 04:14:52;;;;;;;5.95;2.45;;;;;;;;;;5105785;28;20024;-68
2022/05/31 04:17:17;;;;;;;7.28;2.42;;;;;;;;;;5111120;28;20127;-68
2022/05/31 04:19:43;;;;;;;5.28;2.53;;;;;;;;;;5082609;28;20106;-68
2022/05/31 04:22:08;;;;;;;4.53;2.50;;;;;;;;;;5100847;28;20475;-68
2022/05/31 04:24:33;;;;;;;9.00;2.88;;;;;;;;;;5096239;28;20031;-68
2022/05/31 04:26:58;;;;;;;4.03;2.40;;;;;;;;;;5097773;28;20042;-68
2022/05/31 04:29:23;;;;;;;4.78;2.42;;;;;;;;;;5104345;28;20124;-68
2022/05/31 04:31:49;;;;;;;4.35;1.98;;;;;;;;;;5105688;28;20359;-68
2022/05/31 04:34:14;;;;;;;5.70;2.20;;;;;;;;;;5108299;28;20053;-68
2022/05/31 04:36:39;;;;;;;6.97;2.83;;;;;;;;;;5113679;28;20043;-68
2022/05/31 04:39:05;;;;;;;6.25;2.65;;;;;;;;;;5110412;28;20028;-68
2022/05/31 04:41:30;;;;;;;5.20;2.42;;;;;;;;;;5106886;28;20024;-68
2022/05/31 04:43:57;;;;;;;3.50;2.20;;;;;;;;;;5111752;28;20028;-68
2022/05/31 04:46:23;;;;;;;4.55;2.45;;;;;;;;;;5106619;28;20062;-68
2022/05/31 04:48:48;;;;;;;5.93;2.50;;;;;;;;;;5109616;28;20027;-68
2022/05/31 04:51:14;;;;;;;5.75;2.10;;;;;;;;;;5112393;28;20375;-68
2022/05/31 04:53:40;;;;;;;4.93;2.28;;;;;;;;;;5113501;28;20062;-68
2022/05/31 04:56:06;;;;;;;5.63;2.35;;;;;;;;;;5108339;28;20037;-68
2022/05/31 04:58:32;;;;;;;6.32;2.55;;;;;;;;;;5103860;28;20034;-68
2022/05/31 05:00:57;;;;;;;4.43;2.22;;;;;;;;;;5102475;28;20102;-68
2022/05/31 05:03:23;;;;;;;6.97;2.03;;;;;;;;;;5103349;28;20027;-68
2022/05/31 05:05:48;;;;;;;8.00;2.40;;;;;;;;;;5106991;28;20524;-68
2022/05/31 05:08:13;;;;;;;4.15;2.20;;;;;;;;;;5112798;28;20409;-68
2022/05/31 05:10:45;;;;;;;3.70;2.08;;;;;;;;;;5110490;28;20447;-68
2022/05/31 05:13:10;;;;;;;6.47;2.00;;;;;;;;;;5104329;28;20045;-68
2022/05/31 05:15:40;;;;;;;4.93;2.00;;;;;;;;;;5109415;28;20119;-68
2022/05/31 05:18:05;;;;;;;3.10;1.77;;;;;;;;;;5111650;28;20371;-68
2022/05/31 05:20:32;;;;;;;5.38;1.90;;;;;;;;;;5106775;28;20123;-68
2022/05/31 05:22:57;;;;;;;4.80;2.25;;;;;;;;;;5112382;28;20048;-68
2022/05/31 05:25:22;;;;;;;5.85;2.00;;;;;;;;;;5106338;28;20042;-68
2022/05/31 05:27:48;;;;;;;4.38;2.00;;;;;;;;;;5106265;28;20474;-68
2022/05/31 05:32:57;;;;;;;3.65;2.13;;;;;;;;;;5110825;28;20167;-68
2022/05/31 05:35:22;;;;;;;2.97;1.80;;;;;;;;;;5111028;28;20500;-68
2022/05/31 05:37:48;;;;;;;2.97;1.92;;;;;;;;;;5104191;28;20093;-68
2022/05/31 05:40:13;;;;;;;3.97;1.90;;;;;;;;;;5109413;28;20422;-68
2022/05/31 05:42:42;;;;;;;5.53;2.20;;;;;;;;;;5108722;28;20528;-68
2022/05/31 05:45:07;;;;;;;4.65;1.80;;;;;;;;;;5103074;28;20069;-68
2022/05/31 05:47:33;;;;;;;3.47;1.80;;;;;;;;;;5100831;28;20016;-68
2022/05/31 05:49:58;;;;;;;2.90;1.70;;;;;;;;;;5103907;28;20455;-68
2022/05/31 05:52:23;;;;;;;6.15;2.08;;;;;;;;;;5101774;28;20012;-68
2022/05/31 05:54:48;;;;;;;4.75;1.92;;;;;;;;;;5100895;28;20024;-68
2022/05/31 05:57:14;;;;;;;5.45;2.00;;;;;;;;;;5100894;28;20032;-68
2022/05/31 05:59:39;;;;;;;5.30;2.03;;;;;;;;;;5106856;28;20015;-68
2022/05/31 06:02:17;;;;;;;3.17;1.90;;;;;;;;;;5113201;28;20035;-68
2022/05/31 06:04:47;;;;;;;5.55;1.80;;;;;;;;;;5107367;28;20027;-68
2022/05/31 06:07:16;;;;;;;4.35;1.65;;;;;;;;;;5110684;28;20510;-68
2022/05/31 06:09:43;;;;;;;4.07;1.77;;;;;;;;;;5105624;28;20031;-68
2022/05/31 06:12:11;;;;;;;3.90;1.73;;;;;;;;;;5112049;28;20068;-68
2022/05/31 06:14:49;;;;;;;2.72;1.77;;;;;;;;;;5103437;28;20028;-68
2022/05/31 06:17:17;;;;;;;3.97;1.63;;;;;;;;;;5105668;28;20028;-68
2022/05/31 06:19:44;;;;;;;2.70;1.70;;;;;;;;;;5109811;28;20734;-68
2022/05/31 06:22:10;;;;;;;3.80;1.50;;;;;;;;;;5109350;28;20043;-68
2022/05/31 06:24:36;;;;;;;2.65;1.65;;;;;;;;;;5104901;28;20032;-67
2022/05/31 06:27:01;;;;;;;2.75;1.67;;;;;;;;;;5104111;28;20092;-68
2022/05/31 06:29:29;;;;;;;4.10;1.50;;;;;;;;;;5107864;28;20620;-68
2022/05/31 06:31:54;;;;;;;5.10;1.90;;;;;;;;;;5106676;28;20028;-68
2022/05/31 06:34:19;;;;;;;4.25;1.88;;;;;;;;;;5101341;28;20039;-68
2022/05/31 06:36:45;;;;;;;2.58;1.42;;;;;;;;;;5100723;28;20119;-68
2022/05/31 06:39:10;;;;;;;3.25;1.40;;;;;;;;;;5102577;28;20035;-68
2022/05/31 06:41:36;;;;;;;2.95;1.48;;;;;;;;;;5108878;28;20107;-68
2022/05/31 06:44:01;;;;;;;3.28;1.73;;;;;;;;;;5108106;28;20128;-68
2022/05/31 06:46:26;;;;;;;3.10;1.50;;;;;;;;;;5105385;28;20468;-68
2022/05/31 06:48:53;;;;;;;3.38;1.83;;;;;;;;;;5103377;28;20020;-68
2022/05/31 06:56:48;;;;;;;4.65;2.10;;;;;;;;;;5101184;28;20032;-68
2022/05/31 06:56:49;;;;;;;2.72;1.60;;;;;;;;;;5103160;28;20034;-68
2022/05/31 06:59:15;;;;;;;4.75;2.10;;;;;;;;;;5081094;28;20624;-69
2022/05/31 07:01:40;;;;;;;5.88;2.17;;;;;;;;;;5088286;28;20077;-68
2022/05/31 07:04:06;;;;;;;5.88;1.88;;;;;;;;;;5101959;28;20032;-68
2022/05/31 07:06:32;;;;;;;5.47;2.55;;;;;;;;;;5107434;28;20033;-68
2022/05/31 07:08:57;;;;;;;8.75;2.70;;;;;;;;;;5100104;28;20038;-68
2022/05/31 07:11:23;;;;;;;7.22;2.70;;;;;;;;;;5098725;28;20061;-68
2022/05/31 07:13:48;;;;;;;3.95;1.73;;;;;;;;;;5100279;28;20039;-68
2022/05/31 07:16:14;;;;;;;5.60;1.88;;;;;;;;;;5100877;28;20043;-68
2022/05/31 07:18:39;;;;;;;3.42;1.70;;;;;;;;;;5102476;28;20348;-68
2022/05/31 07:21:04;;;;;;;5.30;1.65;;;;;;;;;;5105362;28;20031;-68
2022/05/31 07:23:29;;;;;;;5.55;1.80;;;;;;;;;;5101260;28;20489;-68
2022/05/31 07:25:54;;;;;;;6.80;1.55;;;;;;;;;;5113345;28;20406;-68
2022/05/31 07:28:20;;;;;;;4.53;1.42;;;;;;;;;;5108543;28;20473;-68
2022/05/31 07:30:45;;;;;;;3.60;1.33;;;;;;;;;;5108475;28;20024;-68
2022/05/31 07:33:12;;;;;;;3.00;1.40;;;;;;;;;;5097827;28;20087;-68
2022/05/31 07:35:41;;;;;;;4.38;1.40;;;;;;;;;;5103024;28;20176;-68
2022/05/31 07:38:06;;;;;;;7.07;1.75;;;;;;;;;;5101642;28;20387;-68
2022/05/31 07:40:31;;;;;;;3.17;1.58;;;;;;;;;;5104360;28;20016;-68
2022/05/31 07:42:56;;;;;;;3.47;1.50;;;;;;;;;;5103795;28;20044;-68
2022/05/31 07:45:23;;;;;;;4.57;1.20;;;;;;;;;;5101130;28;20043;-69
2022/05/31 07:47:49;;;;;;;4.18;1.20;;;;;;;;;;5107697;28;20777;-69
2022/05/31 07:50:14;;;;;;;2.70;1.40;;;;;;;;;;5113773;28;20024;-69
2022/05/31 07:52:39;;;;;;;3.72;1.35;;;;;;;;;;5099819;28;20056;-69
2022/05/31 07:55:05;;;;;;;3.97;1.45;;;;;;;;;;5112392;28;20012;-67
2022/05/31 08:00:14;;;;;;;2.03;0.95;;;;;;;;;;5102358;28;20039;-69
2022/05/31 08:02:39;;;;;;;3.83;1.45;;;;;;;;;;5105342;28;20044;-68
2022/05/31 08:05:04;;;;;;;3.03;1.30;;;;;;;;;;5102093;28;20035;-69
2022/05/31 08:07:29;;;;;;;2.60;1.30;;;;;;;;;;5112039;28;20240;-69
2022/05/31 08:09:55;;;;;;;3.63;1.50;;;;;;;;;;5106051;28;20023;-69
2022/05/31 08:12:20;;;;;;;4.20;1.23;;;;;;;;;;5101850;28;20115;-70
2022/05/31 08:14:45;;;;;;;3.77;1.53;;;;;;;;;;5113710;28;20259;-69
2022/05/31 08:17:10;;;;;;;3.83;1.10;;;;;;;;;;5116702;28;20286;-69
2022/05/31 08:19:36;;;;;;;3.63;1.23;;;;;;;;;;5114686;28;20179;-69
2022/05/31 08:22:01;;;;;;;3.00;1.30;;;;;;;;;;5104748;28;20023;-69
2022/05/31 08:24:28;;;;;;;3.05;1.13;;;;;;;;;;5106639;28;20473;-69
2022/05/31 08:26:54;;;;;;;3.47;1.23;;;;;;;;;;5104386;28;20359;-69
2022/05/31 08:29:19;;;;;;;4.20;1.30;;;;;;;;;;5100460;28;20027;-69
2022/05/31 08:31:44;;;;;;;4.75;1.60;;;;;;;;;;5109033;28;20478;-69
2022/05/31 08:34:10;;;;;;;3.15;1.30;;;;;;;;;;5112004;28;20490;-69
2022/05/31 08:36:35;;;;;;;2.53;1.40;;;;;;;;;;5110386;28;20051;-69
2022/05/31 08:39:01;;;;;;;3.38;1.30;;;;;;;;;;5110608;28;20038;-69
2022/05/31 08:41:30;;;;;;;3.00;1.10;;;;;;;;;;5107109;28;20067;-69
2022/05/31 08:43:59;;;;;;;1.85;0.80;;;;;;;;;;5115410;28;20030;-69
2022/05/31 08:46:32;;;;;;;1.83;1.10;;;;;;;;;;5116251;28;20036;-69
2022/05/31 08:48:59;;;;;;;2.85;1.08;;;;;;;;;;5104073;28;20501;-69
2022/05/31 08:51:54;;;;;;;2.03;1.02;;;;;;;;;;5115560;28;20360;-70
2022/05/31 08:57:27;;;;;;;4.28;1.25;;;;;;;;;;5115552;28;20069;-68
2022/05/31 08:59:56;;;;;;;2.55;1.10;;;;;;;;;;5114436;28;20073;-68
2022/05/31 09:02:21;;;;;;;2.83;1.00;;;;;;;;;;5103704;28;20054;-68
2022/05/31 09:05:04;;;;;;;2.58;1.27;;;;;;;;;;5114437;28;20024;-68
2022/05/31 09:07:36;;;;;;;2.05;1.00;;;;;;;;;;5106323;28;20128;-68
2022/05/31 09:10:05;;;;;;;2.28;0.90;;;;;;;;;;5115581;28;20024;-68
2022/05/31 09:12:52;;;;;;;1.65;1.08;;;;;;;;;;5103599;28;20036;-67
2022/05/31 09:15:21;;;;;;;2.17;0.88;;;;;;;;;;5106020;28;20118;-67
2022/05/31 09:17:46;;;;;;;1.98;1.13;;;;;;;;;;5110430;28;20486;-67
2022/05/31 09:20:14;;;;;;;3.30;0.85;;;;;;;;;;5115678;28;20012;-69
2022/05/31 09:22:42;;;;;;;2.95;1.02;;;;;;;;;;5115280;28;20030;-69
2022/05/31 09:25:07;;;;;;;1.92;1.00;;;;;;;;;;5115557;28;20027;-70
2022/05/31 09:27:44;;;;;;;1.90;1.17;;;;;;;;;;5114539;28;20023;-70
2022/05/31 09:30:19;;;;;;;1.85;1.00;;;;;;;;;;5112934;28;20439;-68
2022/05/31 09:32:51;;;;;;;2.50;0.93;;;;;;;;;;5106807;28;20048;-67
2022/05/31 09:35:35;;;;;;;5.38;1.00;;;;;;;;;;5114885;28;20024;-69
2022/05/31 09:38:19;;;;;;;2.83;0.75;;;;;;;;;;5095500;28;20043;-69
2022/05/31 09:40:46;;;;;;;1.80;0.93;;;;;;;;;;5102769;28;20031;-69
2022/05/31 09:43:22;;;;;;;1.52;0.82;;;;;;;;;;5114466;28;20047;-69
2022/05/31 09:45:56;;;;;;;5.05;1.00;;;;;;;;;;5114800;28;20036;-69
2022/05/31 09:48:22;;;;;;;1.95;0.82;;;;;;;;;;5114545;28;20759;-69
2022/05/31 09:50:47;;;;;;;1.63;0.80;;;;;;;;;;5115022;28;20024;-68
2022/05/31 09:59:06;;;;;;;2.63;0.90;;;;;;;;;;5090337;28;20039;-69
2022/05/31 10:01:39;;;;;;;4.18;0.90;;;;;;;;;;5110776;28;20115;-69
2022/05/31 10:04:09;;;;;;;3.35;1.30;;;;;;;;;;5085321;28;20085;-69
2022/05/31 10:06:49;;;;;;;4.43;1.25;;;;;;;;;;5113474;28;20108;-69
2022/05/31 10:09:15;;;;;;;2.05;1.00;;;;;;;;;;5110186;28;20032;-69
2022/05/31 10:11:48;;;;;;;3.25;0.95;;;;;;;;;;5113428;28;20039;-69
2022/05/31 10:14:14;;;;;;;2.40;1.00;;;;;;;;;;5108292;28;20008;-69
2022/05/31 10:16:39;;;;;;;2.90;0.87;;;;;;;;;;5106083;28;20027;-69
2022/05/31 10:19:06;;;;;;;2.80;0.98;;;;;;;;;;5110985;28;20240;-70
2022/05/31 10:21:36;;;;;;;3.00;0.90;;;;;;;;;;5112679;28;20025;-69
2022/05/31 10:24:04;;;;;;;2.17;0.98;;;;;;;;;;5112635;28;20067;-69
2022/05/31 10:26:32;;;;;;;1.75;0.90;;;;;;;;;;5112207;28;20020;-69
2022/05/31 10:29:06;;;;;;;3.20;0.80;;;;;;;;;;5111486;28;20012;-69
2022/05/31 10:31:33;;;;;;;1.88;0.70;;;;;;;;;;5106993;28;20031;-69
2022/05/31 10:34:00;;;;;;;2.15;0.82;;;;;;;;;;5112275;28;20106;-69
2022/05/31 10:36:27;;;;;;;2.33;1.10;;;;;;;;;;5112274;28;20063;-69
2022/05/31 10:38:52;;;;;;;3.42;0.98;;;;;;;;;;5085233;28;20387;-68
2022/05/31 10:41:23;;;;;;;2.72;0.90;;;;;;;;;;5109660;28;20030;-68
2022/05/31 10:43:56;;;;;;;5.45;1.00;;;;;;;;;;5111858;28;20054;-68
2022/05/31 10:46:21;;;;;;;1.57;0.73;;;;;;;;;;5092557;28;20035;-68
2022/05/31 10:48:52;;;;;;;1.17;0.70;;;;;;;;;;5106591;28;20043;-68
2022/05/31 10:51:32;;;;;;;2.13;0.93;;;;;;;;;;5097353;28;20024;-68
2022/05/31 10:54:16;;;;;;;3.65;1.00;;;;;;;;;;5110142;28;20467;-69
2022/05/31 10:57:07;;;;;;;4.75;0.82;;;;;;;;;;5110038;28;20077;-68
2022/05/31 10:59:38;;;;;;;2.67;1.10;;;;;;;;;;5071109;28;20717;-69
2022/05/31 11:02:13;;;;;;;4.80;1.00;;;;;;;;;;5100138;28;20067;-68
2022/05/31 11:04:58;;;;;;;1.92;0.98;;;;;;;;;;5105584;28;20092;-68
2022/05/31 11:07:43;;;;;;;2.67;0.85;;;;;;;;;;5102641;28;20023;-69
2022/05/31 11:13:03;;;;;;;1.85;0.90;;;;;;;;;;5098461;28;20632;-68
2022/05/31 11:15:31;;;;;;;2.92;0.95;;;;;;;;;;5105343;28;20062;-69
2022/05/31 11:18:00;;;;;;;2.42;1.00;;;;;;;;;;5101792;28;20031;-68
2022/05/31 11:20:43;;;;;;;4.22;0.93;;;;;;;;;;5110093;28;20402;-68
2022/05/31 11:23:09;;;;;;;;;;;;;;;;;;5108712;28;20066;-69
2022/05/31 11:25:44;;;;;;;2.88;0.60;;;;;;;;;;5111073;28;19943;-68
2022/05/31 11:28:17;;;;;;;7.50;0.70;;;;;;;;;;5099124;28;20027;-69
2022/05/31 11:31:01;;;;;;;1.63;0.70;;;;;;;;;;5095669;28;20023;-68
2022/05/31 11:33:52;;;;;;;2.78;1.00;;;;;;;;;;5111404;28;20047;-68
2022/05/31 11:36:36;;;;;;;3.92;0.95;;;;;;;;;;5062946;28;20048;-68
2022/05/31 11:39:01;;;;;;;;;;;;;;;;;;5109478;28;20471;-68
2022/05/31 11:41:28;;;;;;;1.40;0.80;;;;;;;;;;5111350;28;20347;-68
2022/05/31 11:43:59;;;;;;;1.48;0.80;;;;;;;;;;5110890;28;20184;-68
2022/05/31 11:46:33;;;;;;;1.38;0.60;;;;;;;;;;5110910;28;20471;-68
2022/05/31 11:49:02;;;;;;;1.20;0.70;;;;;;;;;;5110323;28;20463;-68
2022/05/31 11:51:40;;;;;;;1.98;0.80;;;;;;;;;;5111040;28;20040;-69
2022/05/31 11:54:11;;;;;;;1.50;0.75;;;;;;;;;;5104661;28;20547;-69
2022/05/31 11:56:54;;;;;;;3.17;0.70;;;;;;;;;;5110955;28;20035;-68
2022/05/31 11:59:27;;;;;;;1.08;0.73;;;;;;;;;;5110267;28;20026;-69
2022/05/31 12:01:53;;;;;;;1.70;0.70;;;;;;;;;;5106751;28;20031;-69
2022/05/31 12:04:23;;;;;;;2.80;0.90;;;;;;;;;;5110323;28;20471;-69
2022/05/31 12:06:51;;;;;;;2.10;0.70;;;;;;;;;;5100011;28;20787;-69
2022/05/31 12:09:20;;;;;;;0.85;0.60;;;;;;;;;;5095891;28;20024;-69
2022/05/31 12:12:05;;;;;;;2.83;0.80;;;;;;;;;;5101370;28;20031;-69
2022/05/31 12:14:35;;;;;;;5.28;0.80;;;;;;;;;;5093464;28;20024;-68
2022/05/31 12:17:01;;;;;;;2.58;0.80;;;;;;;;;;5105737;28;20028;-68
2022/05/31 12:19:29;;;;;;;1.98;0.77;;;;;;;;;;5100197;28;20016;-69
2022/05/31 12:22:01;;;;;;;1.90;0.80;;;;;;;;;;5106291;28;20096;-68
2022/05/31 12:24:26;;;;;;;1.58;0.80;;;;;;;;;;5088854;28;20436;-68
2022/05/31 12:26:53;;;;;;;1.88;1.00;;;;;;;;;;5100959;28;20020;-69
2022/05/31 12:29:33;;;;;;;1.55;0.85;;;;;;;;;;5098135;28;20039;-68
2022/05/31 12:32:17;;;;;;;2.05;1.00;;;;;;;;;;5106805;28;20040;-69
2022/05/31 12:34:42;;;;;;;;;;;;;;;;;;5105703;28;20024;-68
2022/05/31 12:37:09;;;;;;;2.75;1.10;;;;;;;;;;5110679;28;19946;-69
2022/05/31 12:39:35;;;;;;;2.50;1.00;;;;;;;;;;5106017;28;20031;-68
2022/05/31 12:42:17;;;;;;;4.13;0.90;;;;;;;;;;5110431;28;20172;-69
2022/05/31 12:44:47;;;;;;;1.55;0.90;;;;;;;;;;5097832;28;20026;-68
2022/05/31 12:47:16;;;;;;;1.98;0.90;;;;;;;;;;5106160;28;20644;-68
2022/05/31 12:49:51;;;;;;;2.22;0.80;;;;;;;;;;5103288;28;20065;-69
2022/05/31 12:54:53;;;;;;;2.03;0.77;;;;;;;;;;5102113;28;21439;-69
2022/05/31 12:57:20;;;;;;;1.67;0.90;;;;;;;;;;5101763;28;20023;-68
2022/05/31 12:59:47;;;;;;;6.50;0.90;;;;;;;;;;5104664;28;20024;-69
2022/05/31 13:02:20;;;;;;;2.13;0.85;;;;;;;;;;5106829;28;20478;-68
2022/05/31 13:04:56;;;;;;;1.52;0.73;;;;;;;;;;5113953;28;20111;-68
2022/05/31 13:07:22;;;;;;;1.73;0.70;;;;;;;;;;5113645;28;20526;-68
2022/05/31 13:09:47;;;;;;;2.35;0.80;;;;;;;;;;5108777;28;20106;-68
2022/05/31 13:20:56;;;;;;;2.28;0.90;;;;;;;;;;5095565;28;20507;-69
2022/05/31 13:23:29;;;;;;;1.25;0.70;;;;;;;;;;5113101;28;20119;-68
2022/05/31 13:26:06;;;;;;;2.47;0.95;;;;;;;;;;5113618;28;20094;-68
2022/05/31 13:28:32;;;;;;;1.20;0.68;;;;;;;;;;5100119;28;20039;-68
2022/05/31 13:31:03;;;;;;;2.35;0.80;;;;;;;;;;5110287;28;20520;-68
2022/05/31 13:33:28;;;;;;;3.20;0.80;;;;;;;;;;5112751;28;20070;-69
2022/05/31 13:36:17;;;;;;;2.83;0.80;;;;;;;;;;5099059;28;20491;-68
2022/05/31 13:38:45;;;;;;;2.88;0.70;;;;;;;;;;5098419;28;20049;-68
2022/05/31 13:41:12;;;;;;;1.15;0.60;;;;;;;;;;5108875;28;20027;-68
2022/05/31 13:43:40;;;;;;;2.05;0.70;;;;;;;;;;5112546;28;20019;-68
2022/05/31 13:46:11;;;;;;;2.55;0.70;;;;;;;;;;5106508;28;20020;-68
2022/05/31 13:48:38;;;;;;;3.10;0.75;;;;;;;;;;5110933;28;20432;-69
2022/05/31 13:51:10;;;;;;;1.90;0.90;;;;;;;;;;5112514;28;20095;-68
2022/05/31 13:53:36;;;;;;;1.23;0.70;;;;;;;;;;5113092;28;20028;-69
2022/05/31 13:56:02;;;;;;;1.55;0.80;;;;;;;;;;5112941;28;20093;-68
2022/05/31 13:58:29;;;;;;;3.10;0.80;;;;;;;;;;5113293;28;20027;-69
2022/05/31 14:00:55;;;;;;;1.55;0.70;;;;;;;;;;5095755;28;20131;-68
2022/05/31 14:03:22;;;;;;;1.75;0.73;;;;;;;;;;5104785;28;20585;-68
2022/05/31 14:06:07;;;;;;;1.02;0.70;;;;;;;;;;5106452;28;20133;-69
2022/05/31 14:08:45;;;;;;;1.58;0.70;;;;;;;;;;5112000;28;20376;-69
2022/05/31 14:11:18;;;;;;;1.48;0.80;;;;;;;;;;5101222;28;20036;-68
2022/05/31 14:13:43;;;;;;;;;;;;;;;;;;5112876;28;20047;-68
2022/05/31 14:16:13;;;;;;;1.17;0.73;;;;;;;;;;5112301;28;19908;-69
2022/05/31 14:18:43;;;;;;;2.25;0.90;;;;;;;;;;5089640;28;20031;-69
2022/05/31 14:21:09;;;;;;;3.90;0.70;;;;;;;;;;5109214;28;20035;-69
2022/05/31 14:23:34;;;;;;;3.05;0.70;;;;;;;;;;5111176;28;20049;-69
2022/05/31 14:26:01;;;;;;;2.85;0.80;;;;;;;;;;5111091;28;20023;-68
2022/05/31 14:28:26;;;;;;;2.03;0.70;;;;;;;;;;5106239;28;20035;-69
2022/05/31 14:31:03;;;;;;;1.80;0.60;;;;;;;;;;5101200;28;20532;-68
2022/05/31 14:33:34;;;;;;;2.80;0.70;;;;;;;;;;5111418;28;20368;-69
2022/05/31 14:36:00;;;;;;;2.78;0.80;;;;;;;;;;5101994;28;20043;-68
2022/05/31 14:38:32;;;;;;;5.53;0.90;;;;;;;;;;5084817;28;20364;-68
2022/05/31 14:41:23;;;;;;;1.00;0.60;;;;;;;;;;5102842;28;20023;-68
2022/05/31 14:43:53;;;;;;;2.20;0.75;;;;;;;;;;5065363;28;20035;-69
2022/05/31 14:46:28;;;;;;;4.35;0.93;;;;;;;;;;5109247;28;20487;-69
2022/05/31 14:49:07;;;;;;;3.17;1.00;;;;;;;;;;5112141;28;20459;-68
2022/05/31 14:51:33;;;;;;;3.65;0.90;;;;;;;;;;5110468;28;20061;-69
2022/05/31 14:54:00;;;;;;;4.18;0.98;;;;;;;;;;5101620;28;20016;-68
2022/05/31 14:56:25;;;;;;;2.75;0.90;;;;;;;;;;5097456;28;20031;-69
2022/05/31 14:58:56;;;;;;;2.10;1.10;;;;;;;;;;5106025;28;20051;-68
2022/05/31 15:01:26;;;;;;;2.38;1.15;;;;;;;;;;5107979;28;21047;-68
2022/05/31 15:04:03;;;;;;;2.83;1.00;;;;;;;;;;5107848;28;20650;-68
2022/05/31 15:06:30;;;;;;;1.80;1.08;;;;;;;;;;5109319;28;20107;-69
2022/05/31 15:09:14;;;;;;;4.28;1.35;;;;;;;;;;5108824;28;20031;-68
2022/05/31 15:19:51;;;;;;;1.65;0.90;;;;;;;;;;5109903;28;19914;-68
2022/05/31 15:22:24;;;;;;;1.90;0.93;;;;;;;;;;5107848;28;20031;-68
2022/05/31 15:24:51;;;;;;;3.72;0.85;;;;;;;;;;5101916;28;20028;-68
2022/05/31 15:27:19;;;;;;;2.05;0.80;;;;;;;;;;5108940;28;20032;-68
2022/05/31 15:29:44;;;;;;;3.30;1.00;;;;;;;;;;5106880;28;20027;-69
2022/05/31 15:32:10;;;;;;;1.17;0.73;;;;;;;;;;5096634;28;20032;-68
2022/05/31 15:34:35;;;;;;;3.50;0.77;;;;;;;;;;5100269;28;20051;-68